Time;durP1;ratioP1;P1;durP2;ratioP2;P2;SDS_P1;SDS_P2;PMS_P1;PMS_P2;Temp;Humidity;BMP_temperature;BMP_pressure;BME280_temperature;BME280_humidity;BME280_pressure;Samples;Min_cycle;Max_cycle;Signal;HPM_P1;HPM_P2
2021/12/05 00:19:57;;;;;;;11.00;7.90;;;;;;;2.43;70.06;98937.05;24467;1360;3051344;-71
2021/12/05 00:22:31;;;;;;;10.80;7.90;;;;;;;2.41;70.24;98934.20;24399;1356;3059043;-76
2021/12/05 00:25:01;;;;;;;;;;;;;;;2.38;70.31;98937.73;24449;1355;3050156;-71
2021/12/05 00:27:43;;;;;;;9.10;6.90;;;;;;;2.37;70.44;98934.69;24440;1361;3026098;-74
2021/12/05 00:33:34;;;;;;;12.90;6.90;;;;;;;2.24;71.06;98925.97;24465;1363;3070943;-66
2021/12/05 01:16:39;;;;;;;13.90;9.20;;;;;;;2.30;69.97;98912.27;24421;1361;3052627;-67
2021/12/05 01:19:10;;;;;;;17.40;9.70;;;;;;;2.34;69.57;98909.02;24416;1361;3027475;-74
2021/12/05 01:21:41;;;;;;;15.40;9.40;;;;;;;2.28;69.77;98905.27;24418;1351;3026835;-65
2021/12/05 01:24:23;;;;;;;14.20;9.50;;;;;;;2.20;69.98;98901.92;24427;1361;3026122;-70
2021/12/05 01:38:05;;;;;;;15.50;8.30;;;;;;;2.67;69.40;98898.31;24439;1359;3026311;-71
2021/12/05 01:59:04;;;;;;;18.30;11.00;;;;;;;2.56;68.30;98893.34;24424;1363;3051864;-67
2021/12/05 02:02:27;;;;;;;17.80;10.40;;;;;;;2.47;68.42;98890.92;24462;1363;3055532;-68
2021/12/05 02:29:39;;;;;;;14.70;8.70;;;;;;;2.06;69.91;98877.54;24422;1363;3070905;-70
2021/12/05 02:43:03;;;;;;;12.00;8.50;;;;;;;1.89;70.38;98873.61;24429;1364;3026743;-66
2021/12/05 02:45:33;;;;;;;14.20;7.60;;;;;;;1.97;70.39;98871.28;24407;1358;3056361;-70
2021/12/05 02:48:03;;;;;;;10.50;6.50;;;;;;;2.74;68.96;98867.78;24432;1358;3027011;-68
2021/12/05 02:50:33;;;;;;;10.10;6.70;;;;;;;3.40;66.45;98869.52;24454;1362;3026775;-70
2021/12/05 02:54:07;;;;;;;10.70;7.70;;;;;;;3.38;65.64;98875.16;24463;1361;3026589;-69
2021/12/05 02:56:01;;;;;;;9.50;7.10;;;;;;;3.22;65.88;98875.09;24421;1361;3054936;-68
2021/12/05 03:01:34;;;;;;;10.80;7.40;;;;;;;3.18;66.27;98875.96;24441;1358;3026622;-71
2021/12/05 03:03:57;;;;;;;12.70;7.60;;;;;;;3.06;66.64;98882.13;24450;1358;3052566;-71
2021/12/05 03:06:28;;;;;;;13.30;8.30;;;;;;;2.80;67.27;98890.23;24393;1361;3026564;-65
2021/12/05 03:09:00;;;;;;;13.10;7.50;;;;;;;2.70;67.51;98895.27;24416;1357;3028582;-65
2021/12/05 03:11:30;;;;;;;11.10;7.70;;;;;;;2.63;67.93;98892.42;24383;1358;3026798;-70
2021/12/05 03:14:00;;;;;;;12.00;8.10;;;;;;;2.58;68.29;98895.35;24414;1358;3028797;-69
2021/12/05 03:16:32;;;;;;;13.40;7.00;;;;;;;2.56;68.19;98898.55;24399;1364;3026994;-70
2021/12/05 03:19:03;;;;;;;11.40;7.20;;;;;;;2.55;68.34;98899.78;24454;1361;3027090;-71
2021/12/05 03:21:33;;;;;;;14.80;7.80;;;;;;;2.42;68.82;98901.98;24487;1361;3027141;-69
2021/12/05 03:24:02;;;;;;;11.40;7.50;;;;;;;2.39;69.18;98902.45;24423;1361;3028790;-66
2021/12/05 03:26:35;;;;;;;12.50;7.40;;;;;;;2.37;69.11;98896.83;24478;1364;3026814;-66
2021/12/05 03:29:06;;;;;;;12.80;7.60;;;;;;;2.36;69.11;98899.63;24439;1361;3027070;-66
2021/12/05 03:31:35;;;;;;;13.30;7.40;;;;;;;2.18;69.81;98900.60;24438;1362;3026668;-67
2021/12/05 03:34:05;;;;;;;12.70;7.70;;;;;;;2.12;70.01;98904.95;24403;1361;3027107;-66
2021/12/05 03:36:39;;;;;;;9.10;6.80;;;;;;;2.14;69.99;98905.41;24507;1361;3026892;-67
2021/12/05 03:39:08;;;;;;;10.60;7.60;;;;;;;2.07;70.62;98909.98;24452;1358;3051436;-72
2021/12/05 03:41:37;;;;;;;12.60;7.80;;;;;;;2.06;70.26;98907.08;24441;1358;3026313;-72
2021/12/05 03:44:07;;;;;;;11.00;7.40;;;;;;;1.99;70.75;98909.70;24398;1357;3050833;-67
2021/12/05 03:46:36;;;;;;;11.20;7.40;;;;;;;2.08;70.17;98906.47;24445;1358;3029637;-69
2021/12/05 03:49:08;;;;;;;13.40;6.30;;;;;;;2.03;70.21;98908.56;24418;1351;3026198;-69
2021/12/05 03:51:42;;;;;;;12.90;7.80;;;;;;;2.06;70.33;98907.25;24417;1362;3052976;-64
2021/12/05 03:54:11;;;;;;;;;;;;;;;2.11;70.05;98908.12;24421;1361;3054701;-70
2021/12/05 03:56:41;;;;;;;9.60;6.60;;;;;;;2.11;69.69;98912.08;24470;1357;3026652;-70
2021/12/05 03:59:12;;;;;;;9.80;6.10;;;;;;;2.09;69.40;98915.45;24410;1351;3052131;-65
2021/12/05 04:01:42;;;;;;;13.30;6.50;;;;;;;2.12;69.30;98919.97;24439;1361;3026612;-68
2021/12/05 04:04:13;;;;;;;9.40;7.20;;;;;;;2.09;69.19;98927.86;24430;1358;3026248;-67
2021/12/05 04:06:43;;;;;;;10.70;7.00;;;;;;;1.93;69.98;98926.52;24411;1359;3027259;-68
2021/12/05 04:09:13;;;;;;;15.60;8.60;;;;;;;2.01;69.66;98929.54;24421;1358;3026364;-67
2021/12/05 04:11:46;;;;;;;17.50;9.50;;;;;;;2.01;69.36;98931.77;24371;1361;3026866;-65
2021/12/05 04:14:17;;;;;;;15.70;8.20;;;;;;;1.99;69.55;98930.64;24375;1356;3049683;-70
2021/12/05 04:16:49;;;;;;;12.70;7.10;;;;;;;2.02;68.97;98931.21;24451;1360;3028963;-65
2021/12/05 04:19:18;;;;;;;12.20;6.90;;;;;;;2.07;69.32;98941.44;24413;1358;3026543;-68
2021/12/05 04:21:48;;;;;;;10.20;6.70;;;;;;;2.09;69.22;98953.61;24442;1359;3026740;-68
2021/12/05 04:24:17;;;;;;;9.40;6.60;;;;;;;2.06;69.10;98953.72;24466;1363;3026321;-70
2021/12/05 04:26:47;;;;;;;8.70;5.10;;;;;;;1.88;69.58;98956.20;24435;1349;3051801;-68
2021/12/05 04:29:16;;;;;;;8.00;5.50;;;;;;;1.99;69.34;98950.31;24373;1358;3026146;-67
2021/12/05 04:31:45;;;;;;;7.10;5.50;;;;;;;2.00;69.43;98948.04;24442;1357;3056110;-66
2021/12/05 04:34:15;;;;;;;10.00;6.00;;;;;;;2.01;69.15;98949.57;24402;1360;3027312;-69
2021/12/05 04:36:44;;;;;;;8.40;5.90;;;;;;;2.03;69.40;98946.89;24382;1358;3027564;-70
2021/12/05 04:39:14;;;;;;;10.90;6.40;;;;;;;2.09;69.16;98952.40;24424;1358;3054264;-74
2021/12/05 04:41:45;;;;;;;8.70;6.10;;;;;;;1.98;69.36;98959.52;24408;1359;3027389;-70
2021/12/05 04:44:15;;;;;;;11.80;7.10;;;;;;;1.83;69.87;98960.20;24456;1362;3026381;-64
2021/12/05 04:46:44;;;;;;;10.00;6.10;;;;;;;1.75;70.62;98962.69;24422;1354;3026438;-69
2021/12/05 04:49:14;;;;;;;9.70;5.90;;;;;;;1.75;70.43;98962.18;24419;1359;3050793;-66
2021/12/05 04:51:44;;;;;;;13.30;5.50;;;;;;;1.81;70.21;98969.40;24433;1356;3027318;-66
2021/12/05 04:54:16;;;;;;;7.10;5.10;;;;;;;1.84;70.53;98970.16;24423;1358;3026631;-70
2021/12/05 04:56:48;;;;;;;7.10;4.90;;;;;;;2.46;69.52;98969.45;24501;1355;3028870;-71
2021/12/05 04:59:19;;;;;;;9.40;5.70;;;;;;;3.23;67.70;98970.08;24452;1358;3027692;-69
2021/12/05 05:01:51;;;;;;;9.90;5.30;;;;;;;3.42;66.92;98970.73;24435;1357;3025954;-66
2021/12/05 05:04:26;;;;;;;7.60;5.40;;;;;;;3.21;66.34;98972.41;24416;1356;3026091;-67
2021/12/05 05:07:02;;;;;;;8.40;5.30;;;;;;;3.04;67.03;98978.08;24492;1351;3053793;-68
2021/12/05 05:09:31;;;;;;;10.20;5.70;;;;;;;2.97;67.16;98981.45;24398;1358;3054512;-70
2021/12/05 05:12:00;;;;;;;7.50;5.20;;;;;;;2.77;67.32;98992.73;24466;1359;3026837;-69
2021/12/05 05:14:30;;;;;;;8.80;5.90;;;;;;;2.69;67.55;98997.86;24437;1361;3026693;-66
2021/12/05 05:16:59;;;;;;;8.40;6.00;;;;;;;2.32;68.47;99002.77;24407;1360;3052963;-69
2021/12/05 05:19:33;;;;;;;8.70;5.90;;;;;;;2.19;68.63;99004.93;24367;1357;3026661;-66
2021/12/05 05:41:34;;;;;;;10.30;6.80;;;;;;;1.43;71.52;99032.73;24420;1358;3052439;-70
2021/12/05 05:49:17;;;;;;;15.20;7.00;;;;;;;1.30;72.05;99036.77;24389;1356;3049215;-67
2021/12/05 05:51:46;;;;;;;8.90;6.40;;;;;;;1.34;72.20;99034.55;24456;1361;3027729;-67
2021/12/05 05:54:16;;;;;;;10.50;5.80;;;;;;;1.65;71.41;99031.55;24432;1361;3026381;-67
2021/12/05 05:56:46;;;;;;;10.40;6.50;;;;;;;2.37;69.31;99025.94;24371;1357;3048108;-73
2021/12/05 05:59:24;;;;;;;13.20;6.70;;;;;;;2.21;68.97;99017.31;24426;1355;3026766;-69
2021/12/05 06:04:23;;;;;;;9.60;6.90;;;;;;;1.73;69.05;99018.16;24388;1358;3026879;-69
2021/12/05 06:06:52;;;;;;;11.50;6.80;;;;;;;1.76;69.52;99020.51;24445;1357;3055386;-65
2021/12/05 06:09:21;;;;;;;10.80;7.40;;;;;;;1.59;69.86;99031.91;24476;1352;3027158;-69
2021/12/05 06:11:50;;;;;;;9.30;6.40;;;;;;;1.44;69.54;99029.24;24427;1358;3051151;-66
2021/12/05 06:14:19;;;;;;;8.60;6.60;;;;;;;1.39;69.69;99034.41;24432;1361;3026225;-66
2021/12/05 06:16:55;;;;;;;9.60;7.50;;;;;;;0.92;70.74;99042.48;24462;1361;3058715;-69
2021/12/05 06:19:24;;;;;;;12.70;7.90;;;;;;;0.78;71.78;99045.13;24438;1359;3026799;-75
2021/12/05 06:21:53;;;;;;;10.30;7.20;;;;;;;0.66;71.80;99042.88;24443;1358;3051090;-68
2021/12/05 06:24:24;;;;;;;10.70;7.30;;;;;;;0.63;71.94;99038.64;24408;1362;3026980;-72
2021/12/05 06:26:53;;;;;;;9.70;7.30;;;;;;;0.74;71.95;99030.20;24428;1355;3052101;-72
2021/12/05 06:29:23;;;;;;;11.10;7.70;;;;;;;0.81;71.96;99025.89;24420;1357;3026374;-68
2021/12/05 06:32:15;;;;;;;11.10;7.20;;;;;;;0.79;71.90;99018.70;24457;1357;3048295;-70
2021/12/05 06:48:11;;;;;;;13.10;9.40;;;;;;;1.64;70.15;99008.80;24431;1361;3053813;-67
2021/12/05 06:50:40;;;;;;;14.20;8.70;;;;;;;2.27;68.18;99005.88;24392;1351;3026457;-67
2021/12/05 06:53:09;;;;;;;15.40;9.60;;;;;;;2.39;67.10;99003.05;24411;1358;3052410;-68
2021/12/05 06:55:38;;;;;;;13.00;8.90;;;;;;;2.36;67.73;99002.97;24447;1361;3026367;-67
2021/12/05 06:58:07;;;;;;;13.70;9.60;;;;;;;2.22;67.55;99005.00;24421;1361;3048997;-67
2021/12/05 07:00:37;;;;;;;16.90;9.50;;;;;;;2.14;67.65;99003.04;24466;1356;3026949;-67
2021/12/05 07:03:08;;;;;;;17.20;9.30;;;;;;;2.17;67.81;98991.69;24426;1358;3026444;-70
2021/12/05 07:05:58;;;;;;;14.50;9.80;;;;;;;1.92;68.14;98997.17;24409;1363;3050182;-72
2021/12/05 07:08:31;;;;;;;13.90;9.30;;;;;;;1.78;68.79;99000.76;24420;1361;3055402;-69
2021/12/05 07:16:17;;;;;;;14.90;8.40;;;;;;;1.58;69.94;99007.24;24449;1354;3053592;-69
2021/12/05 07:19:45;;;;;;;15.30;9.30;;;;;;;1.53;69.66;99012.23;24463;1356;3051481;-68
2021/12/05 07:40:42;;;;;;;10.80;8.10;;;;;;;1.59;69.96;99015.17;24420;1361;3053591;-70
2021/12/05 07:43:12;;;;;;;10.80;7.80;;;;;;;1.64;70.35;99024.86;24433;1355;3028893;-73
2021/12/05 07:45:48;;;;;;;10.60;8.10;;;;;;;1.66;70.32;99028.23;24421;1359;3026494;-71
2021/12/05 07:48:21;;;;;;;9.70;6.90;;;;;;;1.70;70.22;99028.98;24445;1358;3056490;-71
2021/12/05 07:51:13;;;;;;;11.70;7.40;;;;;;;1.87;70.09;99038.64;24470;1357;3052628;-72
2021/12/05 07:53:50;;;;;;;9.30;6.60;;;;;;;2.52;67.95;99042.34;24408;1356;3056762;-72
2021/12/05 07:56:44;;;;;;;9.50;6.70;;;;;;;2.97;66.49;99047.88;24395;1358;3049377;-71
2021/12/05 08:00:17;;;;;;;8.50;7.10;;;;;;;3.40;65.48;99041.95;30809;1364;3026563;-65
2021/12/05 08:16:59;;;;;;;11.90;7.60;;;;;;;2.46;68.52;99063.84;24414;1362;3052321;-69
2021/12/05 08:19:30;;;;;;;10.80;7.40;;;;;;;2.57;68.44;99065.39;24429;1362;3026717;-66
2021/12/05 08:21:59;;;;;;;10.20;6.90;;;;;;;2.61;67.87;99065.92;24478;1359;3029137;-65
2021/12/05 08:24:33;;;;;;;8.70;6.50;;;;;;;2.57;68.35;99062.95;24398;1363;3051702;-69
2021/12/05 08:27:06;;;;;;;8.40;6.50;;;;;;;2.59;67.88;99059.59;24425;1361;3071524;-70
2021/12/05 08:29:45;;;;;;;9.70;6.30;;;;;;;2.68;67.90;99057.20;24385;1359;3026861;-72
2021/12/05 08:45:55;;;;;;;10.20;7.10;;;;;;;2.57;68.44;99055.52;24468;1358;3053558;-76
2021/12/05 10:09:33;;;;;;;10.20;7.00;;;;;;;3.28;67.75;99051.08;24436;1355;3052088;-70
2021/12/05 10:37:12;;;;;;;10.70;7.00;;;;;;;3.09;67.74;99089.35;24417;1359;3056322;-67
2021/12/05 10:39:41;;;;;;;11.70;8.30;;;;;;;2.90;68.34;99091.56;24424;1356;3049502;-66
2021/12/05 10:42:37;;;;;;;12.60;8.90;;;;;;;2.93;68.32;99089.73;24401;1355;3026699;-70
2021/12/05 10:45:08;;;;;;;14.00;9.90;;;;;;;2.80;68.81;99092.91;24450;1355;3056010;-70
2021/12/05 10:47:42;;;;;;;19.50;11.90;;;;;;;2.69;69.60;99099.04;24462;1354;3026676;-72
2021/12/05 10:50:29;;;;;;;;;;;;;;;2.71;69.92;99096.89;24465;1354;3052059;-70
2021/12/05 10:53:26;;;;;;;13.50;10.10;;;;;;;2.75;69.58;99096.76;24395;1360;3050171;-69
2021/12/05 10:55:58;;;;;;;15.80;10.00;;;;;;;2.75;69.93;99099.86;24515;1354;3071394;-73
2021/12/05 10:58:49;;;;;;;15.20;10.20;;;;;;;2.75;69.86;99098.46;24398;1361;3028938;-73
2021/12/05 11:01:34;;;;;;;16.00;10.90;;;;;;;2.79;69.73;99098.52;24447;1354;3054676;-72
2021/12/05 11:04:12;;;;;;;17.20;10.80;;;;;;;2.80;69.22;99096.41;24398;1359;3054886;-70
2021/12/05 11:06:55;;;;;;;14.60;9.60;;;;;;;2.80;69.19;99092.09;24480;1360;3059445;-72
2021/12/05 11:09:35;;;;;;;16.30;11.20;;;;;;;2.82;69.29;99099.11;24440;1360;3052995;-69
2021/12/05 11:12:20;;;;;;;15.20;10.40;;;;;;;2.80;69.03;99109.02;24461;1354;3056910;-70
2021/12/05 11:15:13;;;;;;;15.00;10.60;;;;;;;2.78;69.08;99113.94;24435;1355;3053502;-71
2021/12/05 11:17:46;;;;;;;13.50;9.20;;;;;;;2.66;69.74;99117.11;24397;1354;3071834;-68
2021/12/05 11:20:29;;;;;;;11.60;7.30;;;;;;;2.71;68.97;99116.95;24519;1354;3026650;-67
2021/12/05 11:22:58;;;;;;;11.50;7.80;;;;;;;2.75;68.64;99113.01;24450;1360;3052252;-68
2021/12/05 11:25:29;;;;;;;15.20;9.80;;;;;;;2.68;68.91;99117.91;24475;1357;3028223;-71
2021/12/05 11:28:00;;;;;;;12.00;8.10;;;;;;;2.62;69.13;99120.36;24425;1361;3049563;-70
2021/12/05 11:30:31;;;;;;;15.20;8.90;;;;;;;2.70;69.17;99123.39;24464;1358;3029142;-69
2021/12/05 11:33:04;;;;;;;13.40;8.20;;;;;;;2.79;68.95;99121.02;24435;1355;3026669;-70
2021/12/05 11:35:37;;;;;;;9.30;6.40;;;;;;;2.79;68.31;99120.67;24436;1360;3027533;-69
2021/12/05 11:38:15;;;;;;;8.80;6.70;;;;;;;2.79;68.16;99121.85;24436;1354;3027001;-71
2021/12/05 11:40:58;;;;;;;13.10;7.30;;;;;;;2.80;68.38;99128.42;24448;1354;3055394;-69
2021/12/05 11:43:30;;;;;;;11.30;7.00;;;;;;;2.75;68.46;99133.74;24427;1355;3053607;-71
2021/12/05 11:46:11;;;;;;;9.70;6.90;;;;;;;2.77;68.53;99134.56;24487;1355;3026583;-69
2021/12/05 11:48:43;;;;;;;9.30;6.20;;;;;;;2.70;68.42;99137.73;24433;1354;3049178;-68
2021/12/05 11:51:23;;;;;;;10.20;6.50;;;;;;;2.70;68.80;99138.26;24436;1355;3026879;-70
2021/12/05 11:54:09;;;;;;;10.50;7.30;;;;;;;2.64;69.10;99145.02;24377;1355;3050333;-70
2021/12/05 11:56:45;;;;;;;10.30;7.70;;;;;;;2.69;69.09;99149.73;24455;1354;3056476;-71
2021/12/05 11:59:14;;;;;;;9.70;6.60;;;;;;;2.75;68.87;99147.08;24415;1357;3048410;-67
2021/12/05 12:01:45;;;;;;;9.10;7.20;;;;;;;2.71;68.82;99147.05;24442;1358;3027635;-66
2021/12/05 12:04:16;;;;;;;9.60;6.90;;;;;;;2.73;68.95;99156.30;24412;1354;3056703;-67
2021/12/05 12:06:46;;;;;;;12.90;7.90;;;;;;;2.68;69.58;99162.36;24459;1354;3028865;-69
2021/12/05 12:09:17;;;;;;;12.90;8.20;;;;;;;2.65;69.75;99161.23;24412;1354;3026852;-71
2021/12/05 12:11:46;;;;;;;12.30;8.00;;;;;;;2.63;69.94;99165.98;24464;1354;3027146;-71
2021/12/05 12:14:15;;;;;;;10.30;7.30;;;;;;;2.61;70.24;99167.62;24469;1358;3026629;-70
2021/12/05 12:16:51;;;;;;;8.40;5.40;;;;;;;3.17;68.54;99173.14;24431;1359;3055789;-67
2021/12/05 12:19:22;;;;;;;8.90;6.70;;;;;;;3.62;66.34;99179.17;24435;1354;3026455;-70
2021/12/05 12:21:57;;;;;;;10.80;8.30;;;;;;;3.75;65.84;99185.63;24441;1356;3049621;-68
2021/12/05 12:24:26;;;;;;;14.50;9.10;;;;;;;3.72;66.03;99189.23;24420;1354;3053328;-69
2021/12/05 12:26:55;;;;;;;17.50;12.80;;;;;;;3.63;66.50;99190.39;24399;1354;3027330;-67
2021/12/05 12:29:24;;;;;;;17.20;13.20;;;;;;;3.61;66.70;99186.80;24450;1357;3027024;-71
2021/12/05 12:31:56;;;;;;;19.40;13.10;;;;;;;3.45;67.16;99184.65;24418;1357;3052024;-70
2021/12/05 12:34:26;;;;;;;20.70;13.20;;;;;;;3.27;67.75;99175.77;24457;1357;3027672;-67
2021/12/05 12:37:00;;;;;;;22.20;14.20;;;;;;;3.03;68.78;99176.41;24431;1354;3026809;-67
2021/12/05 12:39:36;;;;;;;23.40;15.60;;;;;;;2.79;69.65;99183.09;24449;1351;3048922;-71
2021/12/05 12:42:15;;;;;;;26.60;16.50;;;;;;;2.68;70.42;99190.71;24440;1355;3054167;-66
2021/12/05 12:44:57;;;;;;;24.40;16.10;;;;;;;2.65;71.02;99191.14;24438;1354;3051825;-71
2021/12/05 12:47:34;;;;;;;25.60;15.40;;;;;;;2.70;70.51;99188.92;24414;1360;3056140;-65
2021/12/05 12:50:24;;;;;;;22.70;14.20;;;;;;;2.65;70.78;99192.54;24422;1349;3048696;-70
2021/12/05 12:53:22;;;;;;;25.00;13.90;;;;;;;2.64;71.03;99191.20;24442;1361;3055838;-71
2021/12/05 12:56:11;;;;;;;22.40;14.60;;;;;;;2.55;71.33;99203.76;24466;1354;3051212;-64
2021/12/05 12:58:59;;;;;;;17.40;12.80;;;;;;;2.39;71.19;99209.29;24446;1354;3069282;-69
2021/12/05 13:10:04;;;;;;;20.60;11.60;;;;;;;3.66;67.81;99196.85;24413;1354;3056849;-66
2021/12/05 13:12:48;;;;;;;20.10;12.90;;;;;;;3.68;67.13;99198.35;24400;1361;3052436;-69
2021/12/05 13:15:38;;;;;;;20.70;13.00;;;;;;;3.52;67.50;99187.83;24452;1355;3051849;-68
2021/12/05 13:18:07;;;;;;;24.40;15.50;;;;;;;3.33;68.16;99188.35;24483;1360;3054267;-66
2021/12/05 13:20:43;;;;;;;27.60;15.60;;;;;;;3.13;68.95;99186.29;24426;1358;3026564;-71
2021/12/05 13:23:17;;;;;;;28.70;17.20;;;;;;;2.90;70.00;99190.52;24405;1356;3049321;-64
2021/12/05 13:26:06;;;;;;;29.80;17.50;;;;;;;2.86;70.09;99183.57;24431;1357;3055904;-67
2021/12/05 13:28:47;;;;;;;30.50;17.20;;;;;;;2.81;70.17;99185.45;24433;1361;3055664;-73
2021/12/05 13:31:30;;;;;;;32.00;16.20;;;;;;;2.81;70.38;99187.37;24429;1351;3056764;-67
2021/12/05 13:34:27;;;;;;;27.70;17.00;;;;;;;2.77;70.64;99186.30;24465;1359;3052320;-73
2021/12/05 13:37:08;;;;;;;24.90;16.50;;;;;;;2.69;71.15;99185.84;24505;1358;3053778;-70
2021/12/05 13:39:47;;;;;;;26.30;17.60;;;;;;;2.57;71.81;99194.86;24465;1353;3054481;-71
2021/12/05 13:42:27;;;;;;;25.50;16.30;;;;;;;2.56;71.82;99197.16;24435;1354;3068804;-68
2021/12/05 13:44:59;;;;;;;33.90;17.90;;;;;;;2.55;72.16;99192.70;24464;1354;3051805;-74
2021/12/05 13:47:39;;;;;;;21.50;12.70;;;;;;;2.54;72.23;99190.13;24431;1354;3026664;-67
2021/12/05 13:50:39;;;;;;;22.30;13.40;;;;;;;3.14;70.63;99178.08;24468;1354;3051277;-69
2021/12/05 13:53:07;;;;;;;23.60;13.90;;;;;;;3.71;68.41;99176.08;24421;1357;3059568;-75
2021/12/05 13:56:02;;;;;;;21.60;12.90;;;;;;;3.88;67.80;99178.73;24490;1359;3026462;-69
2021/12/05 13:58:34;;;;;;;25.50;15.80;;;;;;;3.72;67.63;99167.56;24480;1360;3055225;-68
2021/12/05 14:01:06;;;;;;;25.00;15.90;;;;;;;3.59;67.85;99163.02;24478;1354;3026406;-72
2021/12/05 14:04:07;;;;;;;24.00;16.30;;;;;;;3.42;68.17;99155.32;24457;1354;3026690;-70
2021/12/05 14:07:01;;;;;;;26.10;15.80;;;;;;;3.27;68.83;99150.84;24469;1354;3055962;-68
2021/12/05 14:09:35;;;;;;;29.20;16.10;;;;;;;3.13;68.99;99160.30;24463;1354;3050626;-68
2021/12/05 14:12:18;;;;;;;26.60;16.80;;;;;;;2.96;69.90;99160.20;24445;1354;3067715;-68
2021/12/05 14:14:53;;;;;;;28.30;17.40;;;;;;;2.86;70.41;99166.95;24407;1357;3051866;-68
2021/12/05 14:17:24;;;;;;;31.60;16.50;;;;;;;2.85;70.07;99167.48;24431;1360;3055071;-72
2021/12/05 14:19:58;;;;;;;29.80;16.90;;;;;;;2.89;69.43;99162.16;24430;1354;3029654;-73
2021/12/05 14:22:29;;;;;;;26.90;15.80;;;;;;;2.76;70.17;99156.04;24486;1360;3056086;-71
2021/12/05 14:25:03;;;;;;;25.50;15.60;;;;;;;2.74;70.14;99159.40;24455;1354;3026113;-71
2021/12/05 14:27:35;;;;;;;28.40;16.50;;;;;;;2.60;70.71;99160.19;24444;1357;3055343;-67
2021/12/05 14:30:07;;;;;;;25.40;16.10;;;;;;;2.56;71.25;99166.92;24487;1354;3026025;-70
2021/12/05 14:32:38;;;;;;;27.70;15.70;;;;;;;2.58;71.21;99168.05;24570;1360;3026297;-75
2021/12/05 14:35:37;;;;;;;27.50;17.20;;;;;;;2.53;71.19;99176.51;24528;1359;3027409;-72
2021/12/05 14:38:08;;;;;;;24.40;13.50;;;;;;;2.59;71.46;99184.79;24438;1359;3055246;-72
2021/12/05 14:40:39;;;;;;;24.80;14.60;;;;;;;3.37;69.68;99181.98;24512;1357;3027163;-67
2021/12/05 14:43:10;;;;;;;24.00;15.40;;;;;;;3.93;67.43;99182.18;24429;1357;3026275;-71
2021/12/05 14:45:40;;;;;;;31.90;17.20;;;;;;;4.01;67.03;99177.91;24451;1363;3026575;-71
2021/12/05 14:48:11;;;;;;;24.00;15.30;;;;;;;3.82;67.18;99178.79;24458;1357;3026581;-72
2021/12/05 14:50:40;;;;;;;28.60;17.10;;;;;;;3.74;67.45;99182.02;24520;1356;3029732;-69
2021/12/05 14:53:11;;;;;;;23.30;15.40;;;;;;;3.46;68.11;99177.33;24491;1359;3026599;-71
2021/12/05 14:55:41;;;;;;;24.10;15.10;;;;;;;3.25;68.72;99171.67;24463;1359;3054256;-75
2021/12/05 14:58:10;;;;;;;23.90;15.10;;;;;;;3.19;68.81;99169.81;24458;1359;3026404;-75
2021/12/05 15:00:41;;;;;;;22.70;14.80;;;;;;;2.97;69.19;99167.45;24422;1358;3048878;-75
2021/12/05 15:03:25;;;;;;;22.80;14.30;;;;;;;2.84;69.89;99163.23;24405;1355;3029670;-68
2021/12/05 15:05:56;;;;;;;21.20;12.60;;;;;;;2.81;69.71;99163.13;24417;1356;3052055;-67
2021/12/05 15:08:26;;;;;;;20.80;13.20;;;;;;;2.73;69.93;99172.23;24425;1360;3026802;-74
2021/12/05 15:10:58;;;;;;;21.80;13.20;;;;;;;2.58;70.35;99181.88;24431;1357;3026420;-69
2021/12/05 15:13:35;;;;;;;20.80;13.50;;;;;;;2.48;70.89;99190.50;24428;1363;3055230;-74
2021/12/05 15:16:04;;;;;;;21.20;12.60;;;;;;;2.40;71.03;99192.48;24406;1364;3026932;-68
2021/12/05 15:18:34;;;;;;;20.10;12.60;;;;;;;2.29;71.51;99195.77;24441;1363;3050283;-69
2021/12/05 15:21:03;;;;;;;20.80;12.60;;;;;;;2.15;71.89;99196.38;24409;1357;3028912;-71
2021/12/05 15:23:35;;;;;;;24.10;11.90;;;;;;;2.10;72.19;99198.59;24424;1361;3026792;-69
2021/12/05 15:26:05;;;;;;;21.00;12.70;;;;;;;2.09;72.12;99204.48;24440;1357;3027275;-70
2021/12/05 15:28:35;;;;;;;20.50;11.50;;;;;;;2.07;72.21;99215.27;24428;1357;3026655;-70
2021/12/05 15:31:04;;;;;;;18.90;10.40;;;;;;;2.69;71.10;99218.88;24478;1360;3026590;-70
2021/12/05 15:33:34;;;;;;;18.10;10.30;;;;;;;3.25;68.70;99229.13;24427;1358;3026415;-72
2021/12/05 15:36:04;;;;;;;19.90;11.60;;;;;;;3.37;67.87;99230.80;24601;1355;3050391;-72
2021/12/05 15:38:34;;;;;;;20.20;11.00;;;;;;;3.26;67.78;99232.55;24474;1358;3026342;-72
2021/12/05 15:41:09;;;;;;;19.70;12.30;;;;;;;3.08;68.33;99235.75;24456;1355;3027535;-71
2021/12/05 15:43:40;;;;;;;18.70;11.60;;;;;;;2.85;69.18;99241.89;24414;1357;3070906;-70
2021/12/05 15:46:13;;;;;;;20.80;11.80;;;;;;;2.73;69.65;99245.91;24461;1351;3026385;-71
2021/12/05 15:48:45;;;;;;;20.10;12.40;;;;;;;2.66;69.82;99248.73;24473;1361;3026812;-70
2021/12/05 15:51:14;;;;;;;20.80;12.00;;;;;;;2.58;70.09;99251.04;24482;1355;3027613;-76
2021/12/05 15:53:43;;;;;;;22.30;12.60;;;;;;;2.45;70.25;99257.33;24436;1357;3026861;-72
2021/12/05 15:56:14;;;;;;;21.40;13.60;;;;;;;2.36;70.84;99258.11;24412;1355;3055078;-72
2021/12/05 15:58:46;;;;;;;22.60;13.80;;;;;;;2.25;71.06;99256.19;24469;1360;3029287;-72
2021/12/05 16:01:18;;;;;;;23.30;14.60;;;;;;;2.21;71.54;99254.77;24497;1355;3026510;-70
2021/12/05 16:03:49;;;;;;;22.00;13.30;;;;;;;2.12;71.86;99258.84;24468;1361;3026670;-75
2021/12/05 16:06:20;;;;;;;20.10;13.30;;;;;;;2.17;71.39;99263.34;24427;1357;3026435;-75
2021/12/05 16:08:49;;;;;;;24.20;14.50;;;;;;;2.12;71.43;99262.80;24536;1356;3026721;-74
2021/12/05 16:11:19;;;;;;;21.30;12.40;;;;;;;2.08;71.36;99266.90;24534;1357;3026964;-69
2021/12/05 16:13:51;;;;;;;22.20;13.20;;;;;;;2.08;71.45;99268.27;24461;1357;3289007;-73
2021/12/05 16:16:26;;;;;;;21.00;13.30;;;;;;;1.98;72.26;99266.30;24523;1354;3027150;-70
2021/12/05 16:18:57;;;;;;;18.50;11.50;;;;;;;1.97;72.42;99265.83;24476;1352;3068636;-74
2021/12/05 16:21:33;;;;;;;20.30;12.20;;;;;;;2.54;71.29;99262.40;24432;1359;3026411;-71
2021/12/05 16:24:07;;;;;;;21.60;12.50;;;;;;;3.19;68.61;99255.14;24440;1357;3051407;-79
2021/12/05 16:26:36;;;;;;;19.90;13.00;;;;;;;3.37;68.02;99251.58;24448;1354;3028415;-71
2021/12/05 16:29:18;;;;;;;20.30;12.40;;;;;;;3.23;68.08;99244.95;24456;1358;3026288;-72
2021/12/05 16:31:52;;;;;;;22.00;14.30;;;;;;;3.10;68.56;99248.14;24438;1357;3052599;-70
2021/12/05 16:34:27;;;;;;;21.90;14.60;;;;;;;2.88;69.19;99246.63;24571;1354;3051636;-74
2021/12/05 16:36:57;;;;;;;;;;;;;;;2.70;69.54;99248.78;24470;1353;3056438;-69
2021/12/05 16:39:47;;;;;;;23.00;12.30;;;;;;;2.45;70.54;99250.23;24449;1358;3026487;-68
2021/12/05 16:42:20;;;;;;;19.40;11.00;;;;;;;2.32;70.69;99256.16;24548;1355;3052604;-70
2021/12/05 16:44:57;;;;;;;22.40;13.40;;;;;;;2.31;70.59;99267.44;24475;1361;3028056;-69
2021/12/05 16:47:28;;;;;;;20.60;12.70;;;;;;;2.25;70.87;99266.23;24506;1354;3067552;-72
2021/12/05 16:49:59;;;;;;;20.60;13.10;;;;;;;2.15;71.10;99261.15;24529;1358;3026529;-71
2021/12/05 16:52:37;;;;;;;22.00;10.70;;;;;;;2.11;71.23;99266.28;24507;1354;3026430;-68
2021/12/05 16:55:24;;;;;;;19.40;11.50;;;;;;;2.02;71.75;99264.30;24481;1357;3051809;-77
2021/12/05 16:58:09;;;;;;;16.50;11.50;;;;;;;1.98;71.86;99268.21;24490;1356;3058992;-74
2021/12/05 17:00:40;;;;;;;20.20;12.30;;;;;;;1.96;72.25;99260.86;24484;1361;3052286;-75
2021/12/05 17:03:10;;;;;;;21.80;13.50;;;;;;;1.89;72.33;99268.64;24522;1358;3028921;-69
2021/12/05 17:05:44;;;;;;;18.40;11.00;;;;;;;1.88;72.70;99272.97;24461;1352;3026993;-70
2021/12/05 17:08:18;;;;;;;17.30;10.20;;;;;;;2.50;71.41;99267.02;24559;1358;3069158;-74
2021/12/05 17:10:49;;;;;;;17.10;10.40;;;;;;;3.14;69.16;99264.65;24447;1353;3048076;-74
2021/12/05 17:13:26;;;;;;;15.80;10.20;;;;;;;3.24;68.04;99264.30;24509;1360;3025814;-71
2021/12/05 17:16:17;;;;;;;18.60;11.30;;;;;;;3.16;67.97;99268.73;24533;1359;3055509;-68
2021/12/05 17:18:53;;;;;;;17.20;11.70;;;;;;;2.98;68.09;99274.35;24513;1361;3059113;-76
2021/12/05 17:21:35;;;;;;;15.80;11.60;;;;;;;2.85;68.56;99274.42;24462;1353;3050044;-78
2021/12/05 17:24:08;;;;;;;16.30;10.30;;;;;;;2.72;69.00;99276.02;24501;1358;3055518;-73
2021/12/05 17:26:58;;;;;;;17.20;10.50;;;;;;;2.61;69.25;99272.55;24467;1360;3053912;-74
2021/12/05 17:29:31;;;;;;;15.70;11.10;;;;;;;2.45;69.96;99264.41;24456;1358;3069652;-76